Time;durP1;ratioP1;P1;durP2;ratioP2;P2;SDS_P1;SDS_P2;PMS_P1;PMS_P2;Temp;Humidity;BMP_temperature;BMP_pressure;BME280_temperature;BME280_humidity;BME280_pressure;Samples;Min_cycle;Max_cycle;Signal;HPM_P1;HPM_P2
2022/06/17 00:02:02;;;;;;;10.43;6.25;;;;;;;17.46;55.27;100394.14;1692161;85;21066;-58
2022/06/17 00:04:32;;;;;;;7.30;5.10;;;;;;;17.40;55.46;100395.11;1692177;85;21054;-58
2022/06/17 00:07:05;;;;;;;6.92;4.03;;;;;;;17.37;55.66;100390.89;1692117;84;21003;-58
2022/06/17 00:09:36;;;;;;;8.53;4.30;;;;;;;17.31;55.69;100384.09;1691972;85;21022;-57
2022/06/17 00:12:07;;;;;;;11.53;4.62;;;;;;;17.27;56.00;100393.44;1692046;85;21447;-58
2022/06/17 00:15:11;;;;;;;8.10;4.50;;;;;;;17.25;56.28;100393.37;1677918;84;21110;-59
2022/06/17 00:17:08;;;;;;;9.23;4.67;;;;;;;17.24;56.31;100395.84;1697623;84;21042;-59
2022/06/17 00:19:38;;;;;;;6.50;4.25;;;;;;;17.21;56.50;100397.17;1701439;83;21054;-58
2022/06/17 00:22:09;;;;;;;9.65;4.55;;;;;;;17.21;56.48;100393.02;1701406;84;21018;-58
2022/06/17 00:24:40;;;;;;;8.68;4.47;;;;;;;17.24;56.37;100392.53;1701472;83;21427;-58
2022/06/17 00:27:12;;;;;;;8.28;4.33;;;;;;;17.23;56.35;100396.93;1701423;84;21133;-58
2022/06/17 00:29:42;;;;;;;9.08;5.00;;;;;;;17.18;56.45;100389.34;1701541;84;21034;-58
2022/06/17 00:32:11;;;;;;;8.05;4.28;;;;;;;17.18;56.60;100384.35;1701519;84;21070;-57
2022/06/17 00:34:42;;;;;;;7.08;3.70;;;;;;;17.17;56.67;100390.43;1701712;84;21497;-57
2022/06/17 00:37:13;;;;;;;8.75;4.42;;;;;;;17.17;56.76;100392.36;1701473;84;21158;-58
2022/06/17 00:39:43;;;;;;;5.58;3.72;;;;;;;17.09;56.84;100388.87;1701572;83;21034;-59
2022/06/17 00:42:14;;;;;;;5.35;3.67;;;;;;;17.03;57.00;100381.52;1701685;84;21024;-58
2022/06/17 00:45:02;;;;;;;7.20;4.00;;;;;;;16.99;57.20;100377.55;1701402;83;21037;-57
2022/06/17 00:47:38;;;;;;;6.90;4.40;;;;;;;16.96;57.42;100376.65;1701836;83;21038;-58
2022/06/17 00:50:22;;;;;;;10.18;4.08;;;;;;;16.96;57.63;100378.03;1701513;83;21277;-58
2022/06/17 00:53:20;;;;;;;6.60;3.70;;;;;;;16.98;57.48;100379.17;1701634;84;21049;-58
2022/06/17 00:56:08;;;;;;;8.70;3.87;;;;;;;16.98;57.39;100375.02;1674460;84;21022;-57
2022/06/17 00:59:04;;;;;;;5.95;3.70;;;;;;;16.95;57.41;100374.12;1701729;83;21055;-56
2022/06/17 01:01:42;;;;;;;6.47;3.60;;;;;;;16.91;57.52;100375.14;1701457;84;21402;-58
2022/06/17 01:04:12;;;;;;;6.10;3.40;;;;;;;16.90;57.56;100375.34;1679132;84;21026;-57
2022/06/17 01:06:47;;;;;;;7.37;3.80;;;;;;;16.91;57.58;100370.99;1701392;84;21446;-57
2022/06/17 01:12:15;;;;;;;11.18;3.55;;;;;;;16.94;57.63;100366.90;1701544;83;21161;-57
2022/06/17 01:14:45;;;;;;;10.05;3.77;;;;;;;16.93;57.78;100370.75;1696699;84;21050;-57
2022/06/17 01:17:18;;;;;;;9.10;3.85;;;;;;;16.94;57.84;100368.28;1692121;85;21446;-57
2022/06/17 01:19:54;;;;;;;9.85;3.90;;;;;;;16.90;58.05;100362.36;1692115;85;21368;-57
2022/06/17 01:22:38;;;;;;;8.55;3.90;;;;;;;16.90;58.03;100372.58;1692170;85;21062;-59
2022/06/17 01:25:16;;;;;;;6.37;4.05;;;;;;;16.86;58.08;100367.23;1692114;85;21046;-58
2022/06/17 01:27:49;;;;;;;9.38;4.30;;;;;;;16.82;58.26;100361.87;1692171;85;21415;-57
2022/06/17 01:30:23;;;;;;;6.50;4.05;;;;;;;16.75;58.52;100368.36;1691889;85;21039;-58
2022/06/17 01:32:59;;;;;;;6.37;3.90;;;;;;;16.72;58.71;100374.38;1691993;83;21074;-58
2022/06/17 01:35:33;;;;;;;6.30;3.87;;;;;;;16.75;58.72;100368.36;1691997;85;21046;-58
2022/06/17 01:38:03;;;;;;;6.83;3.90;;;;;;;16.72;58.75;100356.93;1691925;83;21066;-59
2022/06/17 01:40:34;;;;;;;9.38;4.12;;;;;;;16.66;58.85;100362.03;1692390;84;21070;-58
2022/06/17 01:43:05;;;;;;;10.85;4.05;;;;;;;16.59;59.12;100352.97;1691926;85;21042;-58
2022/06/17 01:45:35;;;;;;;6.40;4.58;;;;;;;16.54;59.30;100360.60;1691995;85;21014;-57
2022/06/17 01:48:08;;;;;;;9.33;5.70;;;;;;;16.55;59.35;100359.52;1691918;85;21014;-57
2022/06/17 01:50:40;;;;;;;9.40;5.50;;;;;;;16.57;59.38;100355.14;1692048;83;21038;-59
2022/06/17 01:53:15;;;;;;;13.28;5.97;;;;;;;16.55;59.47;100358.14;1679905;85;21039;-58
2022/06/17 01:55:51;;;;;;;9.28;5.90;;;;;;;16.51;59.72;100354.16;1691904;83;21047;-58
2022/06/17 01:58:26;;;;;;;12.15;5.83;;;;;;;16.41;60.00;100359.44;1691894;83;21038;-58
2022/06/17 02:00:57;;;;;;;9.35;5.58;;;;;;;16.39;60.18;100364.36;1692060;83;21497;-58
2022/06/17 02:03:39;;;;;;;10.55;6.20;;;;;;;16.41;60.28;100358.05;1691937;85;21042;-57
2022/06/17 02:06:17;;;;;;;9.93;6.50;;;;;;;16.38;60.47;100350.23;1691716;84;21058;-58
2022/06/17 02:08:49;;;;;;;10.63;6.22;;;;;;;16.32;60.71;100353.41;1691882;84;21483;-58
2022/06/17 02:11:20;;;;;;;9.48;6.20;;;;;;;16.32;60.89;100347.88;1692069;85;21603;-57
2022/06/17 02:13:51;;;;;;;10.53;6.05;;;;;;;16.36;60.77;100345.48;1679497;85;21078;-57
2022/06/17 02:16:25;;;;;;;10.05;6.70;;;;;;;16.41;60.69;100345.06;1662775;84;21084;-59
2022/06/17 02:18:57;;;;;;;12.00;6.75;;;;;;;16.37;60.72;100343.86;1711754;84;21480;-58
2022/06/17 02:21:32;;;;;;;9.60;6.83;;;;;;;16.37;60.82;100342.47;1712458;84;21479;-56
2022/06/17 02:24:02;;;;;;;9.38;7.20;;;;;;;16.37;60.98;100338.86;1711833;84;21107;-59
2022/06/17 02:26:34;;;;;;;14.03;7.80;;;;;;;16.37;60.98;100339.70;1711994;83;21072;-57
2022/06/17 02:29:05;;;;;;;12.25;8.55;;;;;;;16.41;60.98;100338.69;1712165;84;21024;-57
2022/06/17 02:31:34;;;;;;;16.65;10.03;;;;;;;16.45;60.88;100338.52;1711953;84;21052;-57
2022/06/17 02:34:07;;;;;;;16.77;11.80;;;;;;;16.47;60.87;100337.20;1712145;83;21044;-58
2022/06/17 02:36:48;;;;;;;16.48;10.80;;;;;;;16.48;60.85;100331.97;1712040;84;21056;-57
2022/06/17 02:39:18;;;;;;;17.77;11.03;;;;;;;16.54;60.79;100330.17;1712074;84;21076;-58
2022/06/17 02:41:48;;;;;;;19.20;12.15;;;;;;;16.58;60.77;100336.92;1711941;84;21100;-58
2022/06/17 02:44:28;;;;;;;20.60;11.83;;;;;;;16.59;60.80;100327.53;1711846;84;21055;-58
2022/06/17 02:47:00;;;;;;;19.92;10.28;;;;;;;16.59;60.85;100321.16;1712172;84;21051;-57
2022/06/17 02:49:34;;;;;;;16.97;10.58;;;;;;;16.65;60.81;100324.35;1686834;84;21501;-58
2022/06/17 02:52:09;;;;;;;16.15;9.80;;;;;;;16.70;60.61;100326.73;1652345;86;21107;-58
2022/06/17 02:54:44;;;;;;;22.58;11.83;;;;;;;16.77;60.55;100320.55;1652576;87;21031;-58
2022/06/17 02:57:26;;;;;;;19.85;11.43;;;;;;;16.81;60.58;100329.20;1652438;87;21043;-59
2022/06/17 03:00:15;;;;;;;19.35;9.88;;;;;;;16.84;60.70;100330.65;1652421;87;21067;-58
2022/06/17 03:02:59;;;;;;;20.52;9.90;;;;;;;16.89;60.73;100333.00;1600105;90;21095;-58
2022/06/17 03:05:31;;;;;;;17.48;8.65;;;;;;;16.95;60.62;100327.91;1600084;90;21051;-57
2022/06/17 03:08:01;;;;;;;20.97;9.03;;;;;;;17.01;60.51;100323.33;1600030;90;21098;-58
2022/06/17 03:10:37;;;;;;;20.00;8.00;;;;;;;17.02;60.51;100319.48;1632367;87;21500;-57
2022/06/17 03:13:31;;;;;;;15.83;8.25;;;;;;;17.08;60.43;100324.05;1652614;87;21075;-57
2022/06/17 03:16:02;;;;;;;20.40;8.30;;;;;;;17.14;60.28;100318.08;1630743;87;21032;-59
2022/06/17 03:18:33;;;;;;;24.20;8.65;;;;;;;17.19;60.13;100319.04;1652510;87;21107;-57
2022/06/17 03:21:05;;;;;;;18.50;8.20;;;;;;;17.28;60.16;100324.50;1684334;84;21036;-58
2022/06/17 03:23:57;;;;;;;16.70;7.90;;;;;;;17.37;60.07;100326.34;1732520;80;21575;-57
2022/06/17 03:26:38;;;;;;;17.85;8.08;;;;;;;17.46;59.99;100325.42;1734670;83;21063;-57
2022/06/17 03:29:09;;;;;;;19.85;8.05;;;;;;;17.52;59.84;100328.05;1676451;85;21545;-58
2022/06/17 03:31:47;;;;;;;17.52;8.48;;;;;;;17.61;59.64;100328.55;1676238;85;21047;-61
2022/06/17 03:34:23;;;;;;;;;;;;;;;17.70;59.35;100320.17;1678762;85;21059;-56
2022/06/17 03:37:04;;;;;;;24.35;8.45;;;;;;;17.79;59.11;100315.08;1676266;85;20157;-59
2022/06/17 03:39:41;;;;;;;16.82;7.55;;;;;;;17.86;59.10;100324.93;1676583;85;21031;-59
2022/06/17 03:42:18;;;;;;;15.00;7.78;;;;;;;17.90;59.00;100321.95;1676578;85;21118;-58
2022/06/17 03:44:55;;;;;;;14.10;7.00;;;;;;;17.95;59.03;100319.28;1676486;85;21031;-57
2022/06/17 03:47:50;;;;;;;15.05;7.83;;;;;;;18.03;59.00;100316.11;1707386;83;21480;-58
2022/06/17 03:50:27;;;;;;;19.45;7.35;;;;;;;18.12;58.84;100319.31;1734737;83;21075;-59
2022/06/17 03:53:07;;;;;;;16.90;7.55;;;;;;;18.21;58.40;100319.78;1711016;83;21087;-57
2022/06/17 03:55:37;;;;;;;14.75;7.37;;;;;;;18.30;57.63;100312.73;1735132;82;21027;-57
2022/06/17 03:58:07;;;;;;;19.37;7.65;;;;;;;18.37;56.75;100314.80;1734836;82;21031;-57
2022/06/17 04:00:52;;;;;;;15.00;7.08;;;;;;;18.46;56.46;100315.22;1733758;83;21079;-62
2022/06/17 04:03:29;;;;;;;16.73;8.15;;;;;;;18.54;56.27;100305.09;1734724;83;21039;-56
2022/06/17 04:06:12;;;;;;;12.73;7.08;;;;;;;18.64;56.18;100315.84;1734688;83;21036;-57
2022/06/17 04:09:01;;;;;;;12.23;6.70;;;;;;;18.74;56.39;100311.55;1735219;83;21678;-57
2022/06/17 04:11:36;;;;;;;15.15;7.08;;;;;;;18.83;56.60;100311.41;1676383;85;21082;-56
2022/06/17 04:14:19;;;;;;;13.55;6.40;;;;;;;18.90;56.51;100306.55;1676314;85;21035;-58
2022/06/17 04:17:12;;;;;;;15.55;6.08;;;;;;;18.99;56.41;100313.36;1656505;85;21023;-58
2022/06/17 04:19:45;;;;;;;9.33;5.65;;;;;;;19.06;56.30;100309.01;1676424;85;21038;-56
2022/06/17 04:22:20;;;;;;;11.83;5.72;;;;;;;19.14;56.17;100300.23;1676374;84;21054;-57
2022/06/17 04:25:07;;;;;;;14.98;7.42;;;;;;;19.22;55.84;100303.95;1675059;85;21146;-57
2022/06/17 04:27:59;;;;;;;13.55;7.20;;;;;;;19.31;55.55;100308.81;1676351;85;21007;-58
2022/06/17 04:30:35;;;;;;;10.95;5.95;;;;;;;19.37;55.18;100310.27;1704829;83;21019;-57
2022/06/17 04:33:13;;;;;;;12.55;6.55;;;;;;;19.42;54.41;100313.11;1734761;83;21024;-58
2022/06/17 04:35:45;;;;;;;11.28;6.22;;;;;;;19.48;54.17;100310.69;1731058;83;21020;-58
2022/06/17 04:38:15;;;;;;;18.35;7.55;;;;;;;19.55;53.74;100312.23;1734577;83;21028;-57
2022/06/17 04:40:56;;;;;;;13.93;6.60;;;;;;;19.61;53.47;100308.97;1731797;83;21098;-58
2022/06/17 04:43:47;;;;;;;12.25;6.92;;;;;;;19.69;53.13;100310.45;1675277;85;21160;-59
2022/06/17 04:46:41;;;;;;;16.23;5.97;;;;;;;19.74;52.36;100309.96;1676616;85;21054;-58
2022/06/17 04:49:24;;;;;;;12.43;6.62;;;;;;;19.80;52.11;100306.69;1675936;85;21051;-57
2022/06/17 04:52:07;;;;;;;13.98;6.90;;;;;;;19.88;52.43;100304.83;1676358;85;22037;-58
2022/06/17 04:54:37;;;;;;;10.98;6.15;;;;;;;19.97;52.35;100309.38;1653580;85;21019;-57
2022/06/17 04:57:12;;;;;;;13.32;6.30;;;;;;;20.08;52.05;100304.20;1635389;85;21051;-58
2022/06/17 04:59:48;;;;;;;9.63;5.37;;;;;;;20.23;51.49;100300.21;1655263;85;21102;-57
2022/06/17 05:02:24;;;;;;;7.67;4.22;;;;;;;20.43;50.70;100305.16;1716027;83;21088;-58
2022/06/17 05:04:59;;;;;;;8.93;4.25;;;;;;;20.64;49.26;100298.65;1733775;83;21525;-58
2022/06/17 05:07:33;;;;;;;8.73;3.52;;;;;;;20.83;47.36;100296.31;1734749;83;21170;-58
2022/06/17 05:10:16;;;;;;;4.95;2.92;;;;;;;20.98;45.43;100292.23;1731004;83;21038;-59
2022/06/17 05:12:58;;;;;;;10.38;3.55;;;;;;;21.12;44.23;100301.79;1734783;83;21043;-58
2022/06/17 05:15:30;;;;;;;7.25;2.95;;;;;;;21.25;43.27;100294.08;1734573;83;21439;-58
2022/06/17 05:17:59;;;;;;;6.37;2.50;;;;;;;21.38;42.67;100297.77;1710281;83;21484;-59
2022/06/17 05:20:28;;;;;;;4.47;2.55;;;;;;;21.54;41.90;100295.37;1735141;83;21110;-58
2022/06/17 05:23:03;;;;;;;3.90;2.35;;;;;;;21.71;41.39;100300.72;1731582;80;21063;-56
2022/06/17 05:25:36;;;;;;;7.50;2.83;;;;;;;21.91;40.87;100302.73;1727894;83;21071;-58
2022/06/17 05:28:07;;;;;;;5.95;2.62;;;;;;;22.09;40.46;100289.69;1727534;83;21059;-58
2022/06/17 05:30:40;;;;;;;5.97;3.17;;;;;;;22.35;40.41;100288.63;1703706;83;21091;-60
2022/06/17 05:33:14;;;;;;;6.08;3.10;;;;;;;22.62;40.04;100286.12;1727772;83;21063;-57
2022/06/17 05:35:44;;;;;;;7.08;3.05;;;;;;;22.84;39.74;100281.69;1727863;83;21071;-58
2022/06/17 05:38:14;;;;;;;7.00;3.45;;;;;;;23.04;38.99;100278.85;1727735;82;21044;-58
2022/06/17 05:40:44;;;;;;;5.78;3.05;;;;;;;23.26;38.99;100284.09;1727612;83;21043;-58
2022/06/17 05:43:14;;;;;;;8.40;2.98;;;;;;;23.46;38.68;100277.63;1704005;83;21079;-58
2022/06/17 05:45:44;;;;;;;12.33;3.52;;;;;;;23.63;38.38;100280.94;1727614;83;21019;-58
2022/06/17 05:48:16;;;;;;;11.68;4.10;;;;;;;23.81;38.11;100285.03;1725536;83;21071;-58
2022/06/17 05:51:04;;;;;;;6.30;2.77;;;;;;;23.99;37.75;100278.20;1727009;83;21008;-59
2022/06/17 05:53:39;;;;;;;7.75;2.95;;;;;;;24.23;37.48;100281.16;1698447;83;21059;-58
2022/06/17 05:56:22;;;;;;;8.35;3.17;;;;;;;24.47;36.88;100274.27;1711704;83;21095;-58
2022/06/17 05:58:52;;;;;;;9.35;3.10;;;;;;;24.69;36.24;100273.80;1727614;83;21055;-58
2022/06/17 06:01:24;;;;;;;4.97;2.58;;;;;;;24.86;36.09;100261.61;1727597;83;21091;-59
2022/06/17 06:03:57;;;;;;;6.12;2.58;;;;;;;25.07;35.21;100269.83;1703537;83;21071;-59
2022/06/17 06:06:27;;;;;;;6.80;2.37;;;;;;;25.25;33.84;100272.70;1727819;83;21097;-58
2022/06/17 06:08:59;;;;;;;6.37;2.70;;;;;;;25.44;33.39;100274.19;1727799;83;21091;-58
2022/06/17 06:11:31;;;;;;;4.87;2.60;;;;;;;25.67;32.92;100268.31;1727522;82;21485;-58
2022/06/17 06:14:00;;;;;;;8.13;2.27;;;;;;;25.83;32.38;100267.53;1727508;82;21075;-60
2022/06/17 06:16:30;;;;;;;6.90;2.70;;;;;;;25.85;32.40;100269.47;1727684;83;21382;-58
2022/06/17 06:19:04;;;;;;;5.40;2.20;;;;;;;25.91;32.34;100263.47;1727894;83;21110;-58
2022/06/17 06:21:35;;;;;;;4.05;1.85;;;;;;;26.02;31.98;100265.59;1727607;83;21154;-60
2022/06/17 06:24:05;;;;;;;5.20;1.80;;;;;;;26.04;31.18;100258.27;1725414;82;21048;-59
2022/06/17 06:26:35;;;;;;;8.50;2.30;;;;;;;26.09;30.27;100263.23;1724689;83;21067;-59
2022/06/17 06:29:14;;;;;;;6.72;2.10;;;;;;;26.18;30.73;100258.60;1692747;84;21044;-59
2022/06/17 06:31:46;;;;;;;11.18;2.83;;;;;;;26.38;30.59;100258.88;1707703;84;21068;-58
2022/06/17 06:34:21;;;;;;;7.72;2.50;;;;;;;26.61;30.49;100257.64;1673170;84;21098;-59
2022/06/17 06:36:52;;;;;;;21.60;7.15;;;;;;;26.76;30.21;100255.42;1707839;84;21098;-58
2022/06/17 06:39:22;;;;;;;6.62;2.98;;;;;;;26.85;30.04;100257.78;1707718;84;21176;-58
2022/06/17 06:41:53;;;;;;;4.08;1.90;;;;;;;26.96;29.83;100245.77;1707718;84;21039;-59
2022/06/17 06:44:22;;;;;;;5.40;2.00;;;;;;;27.07;29.17;100243.05;1684879;84;21067;-58
2022/06/17 06:47:13;;;;;;;4.58;2.10;;;;;;;27.09;29.40;100249.77;1688224;84;21059;-59
2022/06/17 06:49:57;;;;;;;6.17;2.17;;;;;;;27.06;29.40;100248.99;1707830;84;21027;-59
2022/06/17 06:52:28;;;;;;;9.63;2.50;;;;;;;27.03;29.09;100249.61;1707907;84;21146;-57
2022/06/17 06:54:57;;;;;;;11.40;2.50;;;;;;;27.08;29.55;100247.53;1707668;84;21133;-58
2022/06/17 06:57:27;;;;;;;3.45;1.80;;;;;;;27.17;29.11;100244.83;1707852;84;21075;-58
2022/06/17 07:00:08;;;;;;;5.65;1.80;;;;;;;27.15;28.64;100246.55;1707630;84;21515;-58
2022/06/17 07:02:38;;;;;;;3.08;1.30;;;;;;;27.18;28.66;100250.72;1707850;84;21055;-58
2022/06/17 07:05:09;;;;;;;4.53;1.80;;;;;;;27.27;28.00;100241.81;1708085;84;21019;-58
2022/06/17 07:07:39;;;;;;;4.22;1.70;;;;;;;27.28;28.23;100240.66;1763644;81;21392;-59
2022/06/17 07:10:20;;;;;;;4.70;1.80;;;;;;;27.40;28.26;100248.61;1763883;81;20988;-58
2022/06/17 07:12:50;;;;;;;1.92;1.30;;;;;;;27.53;28.02;100240.73;1763952;81;21131;-59
2022/06/17 07:15:20;;;;;;;4.95;1.65;;;;;;;27.70;27.67;100255.02;1763894;81;21015;-59
2022/06/17 07:18:06;;;;;;;4.08;1.90;;;;;;;27.85;28.05;100253.01;1763787;81;21003;-58
2022/06/17 07:20:38;;;;;;;4.78;1.60;;;;;;;27.97;27.29;100247.69;1762917;81;21063;-60
2022/06/17 07:23:22;;;;;;;3.95;1.82;;;;;;;28.08;27.29;100249.94;1727845;83;21472;-58
2022/06/17 07:25:52;;;;;;;4.33;1.65;;;;;;;28.16;27.71;100250.34;1669508;86;21105;-58
2022/06/17 07:28:25;;;;;;;3.75;1.70;;;;;;;28.16;27.71;100250.34;1721235;83;21032;-59
2022/06/17 07:30:56;;;;;;;6.92;1.70;;;;;;;28.25;27.53;100247.04;1721059;83;21025;-60
2022/06/17 07:33:29;;;;;;;2.77;1.67;;;;;;;28.44;26.68;100250.50;1721127;83;21001;-58
2022/06/17 07:36:02;;;;;;;5.42;2.12;;;;;;;28.53;26.37;100249.98;1721308;83;21082;-60
2022/06/17 07:41:24;;;;;;;1.40;1.30;;;;;;;28.58;24.83;100245.62;1721072;83;21079;-59
2022/06/17 07:43:55;;;;;;;4.08;1.50;;;;;;;28.49;24.87;100244.73;1721065;83;21052;-58
2022/06/17 07:46:26;;;;;;;7.40;4.22;;;;;;;28.51;25.01;100250.05;1717494;83;21176;-60
2022/06/17 07:48:56;;;;;;;2.62;1.62;;;;;;;28.57;24.59;100255.23;1760810;81;21464;-60
2022/06/17 07:51:25;;;;;;;5.22;1.72;;;;;;;28.75;24.32;100259.61;1762084;81;21039;-59
2022/06/17 07:53:56;;;;;;;5.40;1.40;;;;;;;28.98;23.79;100256.45;1762078;81;21083;-63
2022/06/17 07:56:29;;;;;;;3.70;1.65;;;;;;;29.18;23.86;100257.87;1762237;81;21052;-60
2022/06/17 07:59:00;;;;;;;5.42;1.70;;;;;;;29.51;23.20;100256.14;1762180;81;21063;-60
2022/06/17 08:01:31;;;;;;;4.25;1.92;;;;;;;29.56;23.45;100260.23;1741500;81;21505;-59
2022/06/17 08:04:01;;;;;;;3.12;1.55;;;;;;;29.49;23.33;100259.30;1761990;81;21060;-61
2022/06/17 08:06:33;;;;;;;4.78;1.72;;;;;;;29.38;23.50;100255.66;1762053;81;21319;-61
2022/06/17 08:09:04;;;;;;;5.17;1.82;;;;;;;29.44;23.50;100256.63;1762105;81;20993;-59
2022/06/17 08:11:42;;;;;;;3.90;1.72;;;;;;;29.44;23.47;100252.97;1706600;84;21571;-64
2022/06/17 08:14:13;;;;;;;3.72;1.60;;;;;;;29.33;23.21;100238.29;1706570;84;21533;-64
2022/06/17 08:16:45;;;;;;;6.55;2.05;;;;;;;29.21;23.26;100251.58;1706643;84;21109;-63
2022/06/17 08:19:15;;;;;;;4.53;1.50;;;;;;;29.13;23.50;100242.50;1683542;84;21275;-62
2022/06/17 08:21:47;;;;;;;6.85;1.80;;;;;;;29.09;23.88;100240.08;1706664;84;20997;-62
2022/06/17 08:24:19;;;;;;;3.37;1.40;;;;;;;29.14;24.00;100242.75;1704225;84;21597;-61
2022/06/17 08:26:51;;;;;;;4.17;1.90;;;;;;;29.14;24.24;100249.80;1683767;84;21092;-62
2022/06/17 08:29:23;;;;;;;3.25;1.60;;;;;;;29.12;24.04;100245.06;1725990;81;21012;-62
2022/06/17 08:32:44;;;;;;;4.55;1.62;;;;;;;29.07;23.44;100246.63;1706481;84;21582;-60
2022/06/17 08:34:29;;;;;;;5.40;1.32;;;;;;;28.90;23.88;100247.95;1703763;84;21105;-61
2022/06/17 08:37:00;;;;;;;4.80;1.60;;;;;;;28.76;24.26;100252.23;1614945;89;21051;-61
2022/06/17 08:39:33;;;;;;;5.78;1.70;;;;;;;28.65;24.30;100240.97;1573377;89;21121;-62
2022/06/17 08:42:35;;;;;;;5.60;1.50;;;;;;;28.63;24.06;100239.05;1614916;89;21533;-61
2022/06/17 08:45:13;;;;;;;3.92;1.40;;;;;;;28.52;24.28;100244.67;1614933;89;21097;-61
2022/06/17 08:47:53;;;;;;;4.47;1.80;;;;;;;28.46;24.50;100248.77;1614832;89;21530;-61
2022/06/17 08:50:39;;;;;;;2.50;1.50;;;;;;;28.46;24.22;100238.33;1647065;86;21027;-66
2022/06/17 08:53:23;;;;;;;3.50;1.60;;;;;;;28.34;24.56;100240.89;1669867;86;21056;-61
2022/06/17 08:56:02;;;;;;;3.90;1.55;;;;;;;28.02;24.60;100239.11;1638977;86;21116;-61
2022/06/17 08:58:39;;;;;;;4.60;1.60;;;;;;;28.02;24.60;100239.11;1669937;86;21041;-64
2022/06/17 09:01:28;;;;;;;;;;;;;;;28.04;24.66;100242.45;1679791;84;21048;-61
2022/06/17 09:04:22;;;;;;;4.95;1.20;;;;;;;28.05;24.54;100237.91;1658910;85;20222;-61
2022/06/17 09:07:33;;;;;;;1.77;1.10;;;;;;;28.00;24.39;100235.78;1682826;84;21534;-62
2022/06/17 09:10:44;;;;;;;5.65;1.82;;;;;;;27.86;24.11;100227.34;1609504;89;21553;-62
2022/06/17 09:13:37;;;;;;;3.15;2.45;;;;;;;27.53;25.00;100227.23;1661711;85;21025;-62
2022/06/17 09:16:25;;;;;;;3.75;1.70;;;;;;;27.33;25.39;100232.72;1662618;86;21029;-61
2022/06/17 09:18:59;;;;;;;4.00;1.80;;;;;;;27.22;25.38;100222.22;1660416;85;21088;-62
2022/06/17 09:21:51;;;;;;;4.75;1.35;;;;;;;27.19;25.52;100224.25;1662584;86;21036;-61
2022/06/17 09:24:29;;;;;;;5.30;1.60;;;;;;;27.28;25.33;100220.97;1656723;85;21044;-61
2022/06/17 09:27:04;;;;;;;4.30;1.42;;;;;;;27.29;25.14;100220.39;1651122;87;21095;-61
2022/06/17 09:29:44;;;;;;;5.20;1.37;;;;;;;27.29;25.83;100223.20;1651261;85;21044;-62
2022/06/17 09:32:22;;;;;;;2.42;1.10;;;;;;;27.29;25.76;100221.23;1673960;85;21178;-61
2022/06/17 09:35:28;;;;;;;1.85;1.30;;;;;;;27.26;25.67;100221.85;1675914;85;21071;-61
2022/06/17 09:38:15;;;;;;;2.35;1.60;;;;;;;27.20;25.58;100217.48;1664541;85;21047;-60
2022/06/17 09:40:48;;;;;;;4.35;1.50;;;;;;;27.12;26.24;100225.24;1700443;83;21479;-64
2022/06/17 09:43:27;;;;;;;10.53;2.42;;;;;;;27.10;26.05;100218.52;1732477;82;21098;-63
2022/06/17 09:46:07;;;;;;;9.60;5.55;;;;;;;27.18;25.81;100223.99;1732875;83;21086;-61
2022/06/17 09:48:57;;;;;;;4.72;1.62;;;;;;;27.27;25.59;100209.45;1699770;83;22015;-63
2022/06/17 09:51:44;;;;;;;2.77;1.50;;;;;;;27.29;25.76;100204.34;1679772;85;21144;-62
2022/06/17 09:54:42;;;;;;;2.30;1.45;;;;;;;27.22;25.88;100211.54;1683513;85;21038;-64
2022/06/17 09:57:26;;;;;;;2.15;1.47;;;;;;;27.01;26.00;100209.72;1683448;85;21021;-63
2022/06/17 10:00:05;;;;;;;3.50;1.80;;;;;;;26.91;26.06;100213.53;1682987;84;21272;-61
2022/06/17 10:02:55;;;;;;;5.87;1.70;;;;;;;26.90;26.39;100213.84;1683161;85;21088;-61
2022/06/17 10:05:42;;;;;;;2.92;1.40;;;;;;;26.89;26.53;100213.58;1707995;83;21110;-62
2022/06/17 10:08:26;;;;;;;2.95;1.37;;;;;;;26.79;26.89;100204.20;1733370;83;21444;-62
2022/06/17 10:11:22;;;;;;;3.47;1.60;;;;;;;26.70;27.24;100206.06;1733709;83;21079;-61
2022/06/17 10:14:16;;;;;;;4.67;1.47;;;;;;;26.69;27.15;100207.20;1733679;83;21107;-62
2022/06/17 10:20:55;;;;;;;3.45;1.50;;;;;;;26.76;27.15;100211.02;1733389;83;21071;-63
2022/06/17 10:23:44;;;;;;;6.75;1.70;;;;;;;26.85;27.08;100207.75;1731453;83;21056;-63
2022/06/17 10:26:40;;;;;;;7.60;1.80;;;;;;;26.88;27.00;100204.89;1762069;81;21048;-64
2022/06/17 10:29:34;;;;;;;4.90;1.40;;;;;;;26.89;26.61;100200.93;1763790;81;21091;-61
2022/06/17 10:32:04;;;;;;;3.00;1.47;;;;;;;26.80;26.88;100197.44;1763626;80;21031;-63
2022/06/17 10:34:47;;;;;;;7.10;1.70;;;;;;;26.80;26.80;100186.19;1763549;81;21760;-61
2022/06/17 10:37:17;;;;;;;4.92;1.40;;;;;;;26.80;27.14;100189.00;1763776;81;21060;-60
2022/06/17 10:39:49;;;;;;;4.90;1.95;;;;;;;26.81;27.05;100190.66;1770774;80;21027;-62
2022/06/17 10:42:20;;;;;;;3.45;1.40;;;;;;;26.90;26.94;100189.37;1781573;80;21503;-62
2022/06/17 10:44:53;;;;;;;4.12;1.70;;;;;;;27.02;26.46;100183.26;1781179;80;21011;-62
2022/06/17 10:47:55;;;;;;;3.45;1.22;;;;;;;27.11;26.28;100184.20;1781158;80;20999;-64
2022/06/17 10:50:27;;;;;;;2.27;1.40;;;;;;;27.18;25.67;100173.93;1780658;80;21087;-62
2022/06/17 10:53:25;;;;;;;4.50;2.05;;;;;;;27.15;25.77;100181.84;1780409;80;21553;-64
2022/06/17 10:55:57;;;;;;;5.30;1.60;;;;;;;27.16;25.92;100172.27;1780555;80;21501;-62
2022/06/17 10:58:32;;;;;;;5.55;1.75;;;;;;;27.20;25.71;100168.25;1781733;80;21019;-62
2022/06/17 11:01:11;;;;;;;5.53;1.82;;;;;;;27.18;25.81;100169.14;1781534;80;21102;-63
2022/06/17 11:03:43;;;;;;;2.72;1.50;;;;;;;27.14;26.00;100172.31;1781016;80;21027;-65
2022/06/17 11:06:19;;;;;;;4.85;1.70;;;;;;;27.11;26.48;100168.16;1771210;80;21029;-62
2022/06/17 11:09:01;;;;;;;7.13;1.73;;;;;;;27.05;26.93;100178.42;1751838;82;21009;-63
2022/06/17 11:14:34;;;;;;;3.37;1.30;;;;;;;26.89;26.94;100169.42;1751524;81;21027;-62
2022/06/17 11:17:11;;;;;;;6.75;1.75;;;;;;;26.75;26.96;100172.80;1751536;80;21017;-62
2022/06/17 11:19:42;;;;;;;6.03;2.52;;;;;;;26.65;27.36;100172.40;1751189;81;21076;-64
2022/06/17 11:22:36;;;;;;;4.20;1.67;;;;;;;26.57;28.00;100166.09;1751187;80;21057;-62
2022/06/17 11:25:09;;;;;;;4.53;1.62;;;;;;;26.51;28.40;100170.97;1750002;81;21043;-61
2022/06/17 11:27:44;;;;;;;4.42;1.80;;;;;;;26.39;28.44;100166.42;1747506;81;21027;-63
2022/06/17 11:30:30;;;;;;;12.58;2.90;;;;;;;26.33;28.76;100161.20;1748976;81;21023;-60
2022/06/17 11:33:00;;;;;;;8.15;2.27;;;;;;;26.31;29.11;100169.06;1742532;82;21019;-62
2022/06/17 11:35:37;;;;;;;6.55;2.85;;;;;;;26.32;29.16;100162.31;1711188;84;21015;-61
2022/06/17 11:38:13;;;;;;;6.35;2.30;;;;;;;26.31;29.27;100166.27;1738023;81;21027;-61
2022/06/17 11:40:55;;;;;;;3.10;2.00;;;;;;;26.30;29.81;100166.00;1737676;82;21090;-62
2022/06/17 11:43:36;;;;;;;4.78;1.90;;;;;;;26.28;29.32;100168.28;1740525;82;21063;-62
2022/06/17 11:46:09;;;;;;;7.20;1.98;;;;;;;26.18;29.33;100165.91;1740462;82;21431;-60
2022/06/17 11:48:43;;;;;;;6.37;2.20;;;;;;;26.13;29.68;100166.00;1713049;84;21043;-62
2022/06/17 11:51:27;;;;;;;9.23;2.17;;;;;;;26.15;29.54;100158.67;1655971;86;21075;-67
2022/06/17 11:54:00;;;;;;;7.42;2.80;;;;;;;26.17;29.60;100154.41;1691358;85;21061;-63
2022/06/17 11:56:32;;;;;;;7.53;2.60;;;;;;;26.26;29.53;100150.33;1691457;85;21066;-61
2022/06/17 11:59:27;;;;;;;6.62;2.55;;;;;;;26.37;29.54;100150.44;1668440;85;21143;-61
2022/06/17 12:02:02;;;;;;;8.60;2.72;;;;;;;26.45;29.58;100151.70;1668466;85;21090;-63
2022/06/17 12:04:51;;;;;;;6.15;3.75;;;;;;;26.49;29.41;100152.18;1691240;85;21623;-63
2022/06/17 12:07:36;;;;;;;6.10;3.17;;;;;;;26.51;29.77;100154.11;1691217;85;21066;-62
2022/06/17 12:10:19;;;;;;;5.87;3.02;;;;;;;26.59;29.49;100148.34;1737142;82;21043;-62
2022/06/17 12:12:50;;;;;;;11.30;3.83;;;;;;;26.65;29.64;100149.91;1750857;81;21074;-63
2022/06/17 12:15:39;;;;;;;10.93;4.00;;;;;;;26.72;29.62;100140.53;1725871;82;21066;-62
2022/06/17 12:18:23;;;;;;;7.70;3.85;;;;;;;26.74;29.62;100143.86;1746950;82;21031;-62
2022/06/17 12:21:28;;;;;;;9.28;3.77;;;;;;;26.76;29.31;100137.35;1750806;82;21026;-63
2022/06/17 12:24:08;;;;;;;8.30;3.90;;;;;;;26.76;29.44;100138.75;1750876;82;21086;-62